sensor_id;sensor_type;location;lat;lon;timestamp;P1;durP1;ratioP1;P2;durP2;ratioP2
22176;SDS011;11254;50.098;8.726;2023-05-17T00:01:58;4.70;;;1.55;;
22176;SDS011;11254;50.098;8.726;2023-05-17T00:04:26;6.68;;;1.88;;
22176;SDS011;11254;50.098;8.726;2023-05-17T00:06:55;4.13;;;1.88;;
22176;SDS011;11254;50.098;8.726;2023-05-17T00:09:23;5.75;;;1.85;;
22176;SDS011;11254;50.098;8.726;2023-05-17T00:11:57;5.63;;;2.00;;
22176;SDS011;11254;50.098;8.726;2023-05-17T00:14:26;6.53;;;1.55;;
22176;SDS011;11254;50.098;8.726;2023-05-17T00:16:54;9.10;;;1.80;;
22176;SDS011;11254;50.098;8.726;2023-05-17T00:19:24;6.53;;;2.00;;
22176;SDS011;11254;50.098;8.726;2023-05-17T00:21:53;10.75;;;1.85;;
22176;SDS011;11254;50.098;8.726;2023-05-17T00:24:21;7.30;;;1.90;;
22176;SDS011;11254;50.098;8.726;2023-05-17T00:26:49;7.20;;;1.60;;
22176;SDS011;11254;50.098;8.726;2023-05-17T00:29:18;8.75;;;1.92;;
22176;SDS011;11254;50.098;8.726;2023-05-17T00:31:46;5.70;;;1.63;;
22176;SDS011;11254;50.098;8.726;2023-05-17T00:34:15;6.90;;;2.05;;
22176;SDS011;11254;50.098;8.726;2023-05-17T00:36:45;5.93;;;2.08;;
22176;SDS011;11254;50.098;8.726;2023-05-17T00:39:13;7.07;;;2.13;;
22176;SDS011;11254;50.098;8.726;2023-05-17T00:41:42;7.10;;;2.13;;
22176;SDS011;11254;50.098;8.726;2023-05-17T00:44:11;4.45;;;1.90;;
22176;SDS011;11254;50.098;8.726;2023-05-17T00:46:41;6.50;;;1.77;;
22176;SDS011;11254;50.098;8.726;2023-05-17T00:49:09;5.40;;;2.00;;
22176;SDS011;11254;50.098;8.726;2023-05-17T00:51:38;5.38;;;2.35;;
22176;SDS011;11254;50.098;8.726;2023-05-17T00:54:09;7.85;;;2.45;;
22176;SDS011;11254;50.098;8.726;2023-05-17T00:56:38;6.20;;;2.20;;
22176;SDS011;11254;50.098;8.726;2023-05-17T00:59:06;5.93;;;2.22;;
22176;SDS011;11254;50.098;8.726;2023-05-17T01:01:35;5.97;;;2.30;;
22176;SDS011;11254;50.098;8.726;2023-05-17T01:04:04;6.55;;;2.30;;
22176;SDS011;11254;50.098;8.726;2023-05-17T01:06:33;7.25;;;2.30;;
22176;SDS011;11254;50.098;8.726;2023-05-17T01:09:04;7.03;;;1.80;;
22176;SDS011;11254;50.098;8.726;2023-05-17T01:11:38;8.93;;;2.78;;
22176;SDS011;11254;50.098;8.726;2023-05-17T01:14:08;5.88;;;2.00;;
22176;SDS011;11254;50.098;8.726;2023-05-17T01:16:41;6.43;;;2.20;;
22176;SDS011;11254;50.098;8.726;2023-05-17T01:19:14;9.18;;;2.20;;
22176;SDS011;11254;50.098;8.726;2023-05-17T01:21:50;7.15;;;2.22;;
22176;SDS011;11254;50.098;8.726;2023-05-17T01:24:24;5.75;;;2.40;;
22176;SDS011;11254;50.098;8.726;2023-05-17T01:26:54;5.47;;;2.08;;
22176;SDS011;11254;50.098;8.726;2023-05-17T01:29:23;9.32;;;2.40;;
22176;SDS011;11254;50.098;8.726;2023-05-17T01:31:54;7.15;;;2.80;;
22176;SDS011;11254;50.098;8.726;2023-05-17T01:34:23;8.57;;;2.47;;
22176;SDS011;11254;50.098;8.726;2023-05-17T01:36:52;5.57;;;2.35;;
22176;SDS011;11254;50.098;8.726;2023-05-17T01:39:21;7.03;;;2.22;;
22176;SDS011;11254;50.098;8.726;2023-05-17T01:41:50;8.50;;;2.55;;
22176;SDS011;11254;50.098;8.726;2023-05-17T01:44:25;7.13;;;2.20;;
22176;SDS011;11254;50.098;8.726;2023-05-17T01:46:54;6.32;;;2.20;;
22176;SDS011;11254;50.098;8.726;2023-05-17T01:49:28;8.38;;;2.10;;
22176;SDS011;11254;50.098;8.726;2023-05-17T01:51:57;6.68;;;1.88;;
22176;SDS011;11254;50.098;8.726;2023-05-17T01:54:31;7.70;;;2.42;;
22176;SDS011;11254;50.098;8.726;2023-05-17T01:57:05;7.78;;;2.47;;
22176;SDS011;11254;50.098;8.726;2023-05-17T01:59:35;8.65;;;2.25;;
22176;SDS011;11254;50.098;8.726;2023-05-17T02:02:05;11.43;;;2.60;;
22176;SDS011;11254;50.098;8.726;2023-05-17T02:04:34;6.75;;;2.53;;
22176;SDS011;11254;50.098;8.726;2023-05-17T02:07:03;6.68;;;2.13;;
22176;SDS011;11254;50.098;8.726;2023-05-17T02:09:31;6.95;;;2.33;;
22176;SDS011;11254;50.098;8.726;2023-05-17T02:12:00;6.85;;;2.40;;
22176;SDS011;11254;50.098;8.726;2023-05-17T02:14:29;6.53;;;2.65;;
22176;SDS011;11254;50.098;8.726;2023-05-17T02:16:59;6.72;;;2.30;;
22176;SDS011;11254;50.098;8.726;2023-05-17T02:19:27;7.00;;;2.40;;
22176;SDS011;11254;50.098;8.726;2023-05-17T02:21:56;6.13;;;2.25;;
22176;SDS011;11254;50.098;8.726;2023-05-17T02:24:25;9.93;;;3.10;;
22176;SDS011;11254;50.098;8.726;2023-05-17T02:26:53;5.72;;;2.35;;
22176;SDS011;11254;50.098;8.726;2023-05-17T02:29:23;7.57;;;2.60;;
22176;SDS011;11254;50.098;8.726;2023-05-17T02:31:51;8.95;;;2.80;;
22176;SDS011;11254;50.098;8.726;2023-05-17T02:34:21;6.70;;;2.05;;
22176;SDS011;11254;50.098;8.726;2023-05-17T02:36:49;5.78;;;2.17;;
22176;SDS011;11254;50.098;8.726;2023-05-17T02:39:18;9.82;;;2.80;;
22176;SDS011;11254;50.098;8.726;2023-05-17T02:41:46;6.05;;;2.25;;
22176;SDS011;11254;50.098;8.726;2023-05-17T02:44:15;11.68;;;2.88;;
22176;SDS011;11254;50.098;8.726;2023-05-17T02:46:44;5.45;;;2.25;;
22176;SDS011;11254;50.098;8.726;2023-05-17T02:49:12;8.90;;;2.90;;
22176;SDS011;11254;50.098;8.726;2023-05-17T02:51:42;5.60;;;1.98;;
22176;SDS011;11254;50.098;8.726;2023-05-17T02:54:10;8.57;;;3.20;;
22176;SDS011;11254;50.098;8.726;2023-05-17T02:56:39;6.32;;;2.53;;
22176;SDS011;11254;50.098;8.726;2023-05-17T02:59:08;9.43;;;2.80;;
22176;SDS011;11254;50.098;8.726;2023-05-17T03:01:37;6.72;;;2.65;;
22176;SDS011;11254;50.098;8.726;2023-05-17T03:04:07;6.82;;;2.53;;
22176;SDS011;11254;50.098;8.726;2023-05-17T03:06:36;7.38;;;2.38;;
22176;SDS011;11254;50.098;8.726;2023-05-17T03:09:06;5.10;;;2.60;;
22176;SDS011;11254;50.098;8.726;2023-05-17T03:11:35;8.70;;;3.00;;
22176;SDS011;11254;50.098;8.726;2023-05-17T03:14:08;8.18;;;2.88;;
22176;SDS011;11254;50.098;8.726;2023-05-17T03:16:36;12.52;;;2.40;;
22176;SDS011;11254;50.098;8.726;2023-05-17T03:19:05;6.53;;;2.63;;
22176;SDS011;11254;50.098;8.726;2023-05-17T03:21:33;6.50;;;2.25;;
22176;SDS011;11254;50.098;8.726;2023-05-17T03:24:02;6.57;;;2.83;;
22176;SDS011;11254;50.098;8.726;2023-05-17T03:26:32;9.48;;;3.08;;
22176;SDS011;11254;50.098;8.726;2023-05-17T03:29:01;9.02;;;3.00;;
22176;SDS011;11254;50.098;8.726;2023-05-17T03:31:31;8.85;;;2.95;;
22176;SDS011;11254;50.098;8.726;2023-05-17T03:34:00;7.53;;;2.75;;
22176;SDS011;11254;50.098;8.726;2023-05-17T03:36:29;7.53;;;2.90;;
22176;SDS011;11254;50.098;8.726;2023-05-17T03:38:59;8.02;;;2.45;;
22176;SDS011;11254;50.098;8.726;2023-05-17T03:41:28;7.05;;;2.53;;
22176;SDS011;11254;50.098;8.726;2023-05-17T03:44:00;6.70;;;2.83;;
22176;SDS011;11254;50.098;8.726;2023-05-17T03:46:30;7.22;;;2.95;;
22176;SDS011;11254;50.098;8.726;2023-05-17T03:48:58;9.20;;;2.70;;
22176;SDS011;11254;50.098;8.726;2023-05-17T03:51:28;9.23;;;2.88;;
22176;SDS011;11254;50.098;8.726;2023-05-17T03:53:59;10.85;;;2.90;;
22176;SDS011;11254;50.098;8.726;2023-05-17T03:56:29;5.40;;;2.42;;
22176;SDS011;11254;50.098;8.726;2023-05-17T03:58:57;8.20;;;2.83;;
22176;SDS011;11254;50.098;8.726;2023-05-17T04:01:27;5.50;;;2.58;;
22176;SDS011;11254;50.098;8.726;2023-05-17T04:03:56;7.30;;;2.67;;
22176;SDS011;11254;50.098;8.726;2023-05-17T04:06:27;6.35;;;2.47;;
22176;SDS011;11254;50.098;8.726;2023-05-17T04:08:55;7.13;;;2.67;;
22176;SDS011;11254;50.098;8.726;2023-05-17T04:11:24;7.82;;;2.67;;
22176;SDS011;11254;50.098;8.726;2023-05-17T04:13:54;5.72;;;2.20;;
22176;SDS011;11254;50.098;8.726;2023-05-17T04:16:23;7.07;;;2.63;;
22176;SDS011;11254;50.098;8.726;2023-05-17T04:18:54;7.32;;;2.78;;
22176;SDS011;11254;50.098;8.726;2023-05-17T04:21:22;4.72;;;2.15;;
22176;SDS011;11254;50.098;8.726;2023-05-17T04:23:51;9.65;;;2.80;;
22176;SDS011;11254;50.098;8.726;2023-05-17T04:26:19;8.25;;;2.88;;
22176;SDS011;11254;50.098;8.726;2023-05-17T04:28:48;7.22;;;2.58;;
22176;SDS011;11254;50.098;8.726;2023-05-17T04:31:17;6.85;;;2.72;;
22176;SDS011;11254;50.098;8.726;2023-05-17T04:33:46;7.57;;;2.45;;
22176;SDS011;11254;50.098;8.726;2023-05-17T04:36:16;6.97;;;3.10;;
22176;SDS011;11254;50.098;8.726;2023-05-17T04:38:44;7.90;;;2.30;;
22176;SDS011;11254;50.098;8.726;2023-05-17T04:41:16;5.93;;;2.80;;
22176;SDS011;11254;50.098;8.726;2023-05-17T04:43:46;7.28;;;2.40;;
22176;SDS011;11254;50.098;8.726;2023-05-17T04:46:22;7.28;;;2.67;;
22176;SDS011;11254;50.098;8.726;2023-05-17T04:48:51;6.35;;;2.65;;
22176;SDS011;11254;50.098;8.726;2023-05-17T04:51:23;9.93;;;3.15;;
22176;SDS011;11254;50.098;8.726;2023-05-17T04:53:53;11.13;;;3.80;;
22176;SDS011;11254;50.098;8.726;2023-05-17T04:56:21;10.27;;;3.22;;
22176;SDS011;11254;50.098;8.726;2023-05-17T04:58:50;11.55;;;3.40;;
22176;SDS011;11254;50.098;8.726;2023-05-17T05:01:18;8.07;;;3.03;;
22176;SDS011;11254;50.098;8.726;2023-05-17T05:03:48;9.57;;;3.10;;
22176;SDS011;11254;50.098;8.726;2023-05-17T05:06:16;10.18;;;3.15;;
22176;SDS011;11254;50.098;8.726;2023-05-17T05:08:46;10.52;;;3.33;;
22176;SDS011;11254;50.098;8.726;2023-05-17T05:11:15;11.25;;;2.88;;
22176;SDS011;11254;50.098;8.726;2023-05-17T05:13:44;10.05;;;2.95;;
22176;SDS011;11254;50.098;8.726;2023-05-17T05:16:13;9.73;;;3.25;;
22176;SDS011;11254;50.098;8.726;2023-05-17T05:18:42;14.10;;;3.38;;
22176;SDS011;11254;50.098;8.726;2023-05-17T05:21:11;10.90;;;3.22;;
22176;SDS011;11254;50.098;8.726;2023-05-17T05:23:40;9.57;;;2.78;;
22176;SDS011;11254;50.098;8.726;2023-05-17T05:26:11;10.57;;;3.15;;
22176;SDS011;11254;50.098;8.726;2023-05-17T05:28:40;7.72;;;3.13;;
22176;SDS011;11254;50.098;8.726;2023-05-17T05:31:09;9.85;;;2.95;;
22176;SDS011;11254;50.098;8.726;2023-05-17T05:33:44;9.57;;;2.80;;
22176;SDS011;11254;50.098;8.726;2023-05-17T05:36:13;10.20;;;2.78;;
22176;SDS011;11254;50.098;8.726;2023-05-17T05:38:41;8.10;;;2.75;;
22176;SDS011;11254;50.098;8.726;2023-05-17T05:41:11;8.98;;;2.40;;
22176;SDS011;11254;50.098;8.726;2023-05-17T05:43:40;13.20;;;3.35;;
22176;SDS011;11254;50.098;8.726;2023-05-17T05:46:09;8.82;;;2.70;;
22176;SDS011;11254;50.098;8.726;2023-05-17T05:48:39;9.10;;;3.22;;
22176;SDS011;11254;50.098;8.726;2023-05-17T05:51:08;7.93;;;2.90;;
22176;SDS011;11254;50.098;8.726;2023-05-17T05:53:39;6.68;;;2.65;;
22176;SDS011;11254;50.098;8.726;2023-05-17T05:56:08;11.10;;;3.00;;
22176;SDS011;11254;50.098;8.726;2023-05-17T05:58:38;7.70;;;3.22;;
22176;SDS011;11254;50.098;8.726;2023-05-17T06:01:08;10.38;;;2.97;;
22176;SDS011;11254;50.098;8.726;2023-05-17T06:03:38;7.65;;;2.63;;
22176;SDS011;11254;50.098;8.726;2023-05-17T06:06:07;7.75;;;2.83;;
22176;SDS011;11254;50.098;8.726;2023-05-17T06:08:36;7.30;;;2.40;;
22176;SDS011;11254;50.098;8.726;2023-05-17T06:11:06;6.88;;;2.90;;
22176;SDS011;11254;50.098;8.726;2023-05-17T06:13:36;12.57;;;2.80;;
22176;SDS011;11254;50.098;8.726;2023-05-17T06:16:06;11.93;;;3.00;;
22176;SDS011;11254;50.098;8.726;2023-05-17T06:18:34;12.30;;;3.22;;
22176;SDS011;11254;50.098;8.726;2023-05-17T06:21:05;10.50;;;3.25;;
22176;SDS011;11254;50.098;8.726;2023-05-17T06:23:33;7.57;;;2.65;;
22176;SDS011;11254;50.098;8.726;2023-05-17T06:26:02;9.32;;;2.78;;
22176;SDS011;11254;50.098;8.726;2023-05-17T06:28:34;10.25;;;2.97;;
22176;SDS011;11254;50.098;8.726;2023-05-17T06:31:03;7.00;;;3.22;;
22176;SDS011;11254;50.098;8.726;2023-05-17T06:33:32;7.65;;;3.10;;
22176;SDS011;11254;50.098;8.726;2023-05-17T06:36:01;9.32;;;2.95;;
22176;SDS011;11254;50.098;8.726;2023-05-17T06:38:30;11.18;;;2.72;;
22176;SDS011;11254;50.098;8.726;2023-05-17T06:40:58;8.02;;;3.20;;
22176;SDS011;11254;50.098;8.726;2023-05-17T06:43:27;11.52;;;2.97;;
22176;SDS011;11254;50.098;8.726;2023-05-17T06:45:56;9.88;;;2.90;;
22176;SDS011;11254;50.098;8.726;2023-05-17T06:48:24;10.38;;;3.45;;
22176;SDS011;11254;50.098;8.726;2023-05-17T06:50:54;11.13;;;2.85;;
22176;SDS011;11254;50.098;8.726;2023-05-17T06:53:23;10.15;;;2.95;;
22176;SDS011;11254;50.098;8.726;2023-05-17T06:55:52;8.63;;;2.90;;
22176;SDS011;11254;50.098;8.726;2023-05-17T06:58:21;8.55;;;3.10;;
22176;SDS011;11254;50.098;8.726;2023-05-17T07:00:49;18.52;;;3.35;;
22176;SDS011;11254;50.098;8.726;2023-05-17T07:03:21;16.50;;;3.35;;
22176;SDS011;11254;50.098;8.726;2023-05-17T07:05:52;7.40;;;2.67;;
22176;SDS011;11254;50.098;8.726;2023-05-17T07:08:22;8.82;;;2.88;;
22176;SDS011;11254;50.098;8.726;2023-05-17T07:10:51;9.60;;;2.83;;
22176;SDS011;11254;50.098;8.726;2023-05-17T07:13:19;9.63;;;3.33;;
22176;SDS011;11254;50.098;8.726;2023-05-17T07:15:48;8.82;;;3.20;;
22176;SDS011;11254;50.098;8.726;2023-05-17T07:18:16;8.30;;;2.85;;
22176;SDS011;11254;50.098;8.726;2023-05-17T07:20:45;5.50;;;2.28;;
22176;SDS011;11254;50.098;8.726;2023-05-17T07:23:15;13.13;;;2.88;;
22176;SDS011;11254;50.098;8.726;2023-05-17T07:25:45;5.72;;;2.60;;
22176;SDS011;11254;50.098;8.726;2023-05-17T07:28:14;13.25;;;3.20;;
22176;SDS011;11254;50.098;8.726;2023-05-17T07:30:42;9.55;;;2.33;;
22176;SDS011;11254;50.098;8.726;2023-05-17T07:33:13;6.80;;;2.67;;
22176;SDS011;11254;50.098;8.726;2023-05-17T07:35:46;8.02;;;2.45;;
22176;SDS011;11254;50.098;8.726;2023-05-17T07:38:16;8.85;;;2.47;;
22176;SDS011;11254;50.098;8.726;2023-05-17T07:40:46;7.70;;;2.53;;
22176;SDS011;11254;50.098;8.726;2023-05-17T07:43:14;7.78;;;2.90;;
22176;SDS011;11254;50.098;8.726;2023-05-17T07:45:42;7.97;;;2.15;;
22176;SDS011;11254;50.098;8.726;2023-05-17T07:48:11;7.25;;;2.65;;
22176;SDS011;11254;50.098;8.726;2023-05-17T07:50:40;8.57;;;2.80;;
22176;SDS011;11254;50.098;8.726;2023-05-17T07:53:09;6.25;;;2.55;;
22176;SDS011;11254;50.098;8.726;2023-05-17T07:55:37;8.07;;;2.50;;
22176;SDS011;11254;50.098;8.726;2023-05-17T07:58:10;5.20;;;2.53;;
22176;SDS011;11254;50.098;8.726;2023-05-17T08:00:39;8.82;;;2.72;;
22176;SDS011;11254;50.098;8.726;2023-05-17T08:03:12;7.85;;;2.58;;
22176;SDS011;11254;50.098;8.726;2023-05-17T08:05:45;6.53;;;2.83;;
22176;SDS011;11254;50.098;8.726;2023-05-17T08:08:14;9.77;;;3.40;;
22176;SDS011;11254;50.098;8.726;2023-05-17T08:10:48;8.20;;;2.75;;
22176;SDS011;11254;50.098;8.726;2023-05-17T08:13:17;12.45;;;3.30;;
22176;SDS011;11254;50.098;8.726;2023-05-17T08:15:46;7.03;;;2.55;;
22176;SDS011;11254;50.098;8.726;2023-05-17T08:18:17;5.10;;;2.05;;
22176;SDS011;11254;50.098;8.726;2023-05-17T08:20:46;7.00;;;2.80;;
22176;SDS011;11254;50.098;8.726;2023-05-17T08:23:18;8.38;;;2.70;;
22176;SDS011;11254;50.098;8.726;2023-05-17T08:25:47;14.27;;;2.97;;
22176;SDS011;11254;50.098;8.726;2023-05-17T08:28:18;8.77;;;2.55;;
22176;SDS011;11254;50.098;8.726;2023-05-17T08:30:47;7.07;;;2.85;;
22176;SDS011;11254;50.098;8.726;2023-05-17T08:33:16;7.68;;;2.20;;
22176;SDS011;11254;50.098;8.726;2023-05-17T08:35:46;11.82;;;3.00;;
22176;SDS011;11254;50.098;8.726;2023-05-17T08:38:15;14.57;;;2.80;;
22176;SDS011;11254;50.098;8.726;2023-05-17T08:40:51;7.43;;;2.38;;
22176;SDS011;11254;50.098;8.726;2023-05-17T08:43:22;13.52;;;3.50;;
22176;SDS011;11254;50.098;8.726;2023-05-17T08:45:53;7.35;;;2.53;;
22176;SDS011;11254;50.098;8.726;2023-05-17T08:48:23;7.25;;;2.70;;
22176;SDS011;11254;50.098;8.726;2023-05-17T08:50:53;8.48;;;2.40;;
22176;SDS011;11254;50.098;8.726;2023-05-17T08:53:23;10.65;;;2.60;;
22176;SDS011;11254;50.098;8.726;2023-05-17T08:55:52;5.93;;;2.10;;
22176;SDS011;11254;50.098;8.726;2023-05-17T08:58:26;9.35;;;2.28;;
22176;SDS011;11254;50.098;8.726;2023-05-17T09:00:59;7.25;;;2.38;;
22176;SDS011;11254;50.098;8.726;2023-05-17T09:03:40;6.18;;;2.20;;
22176;SDS011;11254;50.098;8.726;2023-05-17T09:06:19;6.55;;;2.20;;
22176;SDS011;11254;50.098;8.726;2023-05-17T09:08:54;5.22;;;2.40;;
22176;SDS011;11254;50.098;8.726;2023-05-17T09:11:25;7.57;;;2.40;;
22176;SDS011;11254;50.098;8.726;2023-05-17T09:13:58;8.82;;;2.45;;
22176;SDS011;11254;50.098;8.726;2023-05-17T09:16:27;6.68;;;2.10;;
22176;SDS011;11254;50.098;8.726;2023-05-17T09:18:57;5.50;;;2.05;;
22176;SDS011;11254;50.098;8.726;2023-05-17T09:21:26;6.40;;;2.10;;
22176;SDS011;11254;50.098;8.726;2023-05-17T09:23:57;9.98;;;2.35;;
22176;SDS011;11254;50.098;8.726;2023-05-17T09:26:36;12.15;;;2.47;;
22176;SDS011;11254;50.098;8.726;2023-05-17T09:29:10;8.52;;;2.10;;
22176;SDS011;11254;50.098;8.726;2023-05-17T09:31:39;5.57;;;2.33;;
22176;SDS011;11254;50.098;8.726;2023-05-17T09:34:07;6.20;;;2.38;;
22176;SDS011;11254;50.098;8.726;2023-05-17T09:36:36;5.88;;;2.20;;
22176;SDS011;11254;50.098;8.726;2023-05-17T09:39:06;6.50;;;2.25;;
22176;SDS011;11254;50.098;8.726;2023-05-17T09:41:39;8.43;;;2.47;;
22176;SDS011;11254;50.098;8.726;2023-05-17T09:44:10;9.65;;;2.50;;
22176;SDS011;11254;50.098;8.726;2023-05-17T09:46:40;5.75;;;2.13;;
22176;SDS011;11254;50.098;8.726;2023-05-17T09:49:09;8.55;;;2.38;;
22176;SDS011;11254;50.098;8.726;2023-05-17T09:51:38;8.05;;;2.38;;
22176;SDS011;11254;50.098;8.726;2023-05-17T09:54:07;5.88;;;1.83;;
22176;SDS011;11254;50.098;8.726;2023-05-17T09:56:36;6.38;;;2.00;;
22176;SDS011;11254;50.098;8.726;2023-05-17T09:59:11;6.28;;;2.10;;
22176;SDS011;11254;50.098;8.726;2023-05-17T10:01:40;9.35;;;2.08;;
22176;SDS011;11254;50.098;8.726;2023-05-17T10:04:12;7.68;;;2.10;;
22176;SDS011;11254;50.098;8.726;2023-05-17T10:06:46;6.78;;;2.20;;
22176;SDS011;11254;50.098;8.726;2023-05-17T10:09:20;10.00;;;2.58;;
22176;SDS011;11254;50.098;8.726;2023-05-17T10:11:49;6.07;;;2.10;;
22176;SDS011;11254;50.098;8.726;2023-05-17T10:14:22;7.07;;;2.20;;
22176;SDS011;11254;50.098;8.726;2023-05-17T10:16:51;8.38;;;2.63;;
22176;SDS011;11254;50.098;8.726;2023-05-17T10:19:20;7.03;;;2.38;;
22176;SDS011;11254;50.098;8.726;2023-05-17T10:21:51;4.72;;;2.15;;
22176;SDS011;11254;50.098;8.726;2023-05-17T10:24:20;6.35;;;2.10;;
22176;SDS011;11254;50.098;8.726;2023-05-17T10:26:49;5.80;;;2.15;;
22176;SDS011;11254;50.098;8.726;2023-05-17T10:29:18;7.75;;;2.25;;
22176;SDS011;11254;50.098;8.726;2023-05-17T10:31:48;7.10;;;2.15;;
22176;SDS011;11254;50.098;8.726;2023-05-17T10:34:17;9.73;;;2.55;;
22176;SDS011;11254;50.098;8.726;2023-05-17T10:36:47;8.88;;;2.78;;
22176;SDS011;11254;50.098;8.726;2023-05-17T10:39:16;7.25;;;2.35;;
22176;SDS011;11254;50.098;8.726;2023-05-17T10:41:45;6.70;;;2.20;;
22176;SDS011;11254;50.098;8.726;2023-05-17T10:44:14;6.70;;;2.50;;
22176;SDS011;11254;50.098;8.726;2023-05-17T10:46:51;6.55;;;2.33;;
22176;SDS011;11254;50.098;8.726;2023-05-17T10:49:22;6.45;;;2.45;;
22176;SDS011;11254;50.098;8.726;2023-05-17T10:51:52;6.22;;;2.40;;
22176;SDS011;11254;50.098;8.726;2023-05-17T10:54:21;5.45;;;1.95;;
22176;SDS011;11254;50.098;8.726;2023-05-17T10:57:01;9.57;;;2.55;;
22176;SDS011;11254;50.098;8.726;2023-05-17T10:59:34;7.13;;;2.20;;
22176;SDS011;11254;50.098;8.726;2023-05-17T11:02:08;7.32;;;2.17;;
22176;SDS011;11254;50.098;8.726;2023-05-17T11:04:39;7.07;;;2.35;;
22176;SDS011;11254;50.098;8.726;2023-05-17T11:07:19;6.35;;;1.83;;
22176;SDS011;11254;50.098;8.726;2023-05-17T11:09:50;9.55;;;2.72;;
22176;SDS011;11254;50.098;8.726;2023-05-17T11:12:28;7.90;;;2.22;;
22176;SDS011;11254;50.098;8.726;2023-05-17T11:15:00;4.95;;;2.25;;
22176;SDS011;11254;50.098;8.726;2023-05-17T11:17:35;6.15;;;2.30;;
22176;SDS011;11254;50.098;8.726;2023-05-17T11:20:06;6.43;;;2.10;;
22176;SDS011;11254;50.098;8.726;2023-05-17T11:22:41;5.57;;;1.92;;
22176;SDS011;11254;50.098;8.726;2023-05-17T11:25:10;9.07;;;2.40;;
22176;SDS011;11254;50.098;8.726;2023-05-17T11:27:43;10.50;;;2.40;;
22176;SDS011;11254;50.098;8.726;2023-05-17T11:30:15;8.60;;;2.47;;
22176;SDS011;11254;50.098;8.726;2023-05-17T11:32:47;7.50;;;2.10;;
22176;SDS011;11254;50.098;8.726;2023-05-17T11:35:17;4.90;;;1.90;;
22176;SDS011;11254;50.098;8.726;2023-05-17T11:37:45;4.78;;;1.75;;
22176;SDS011;11254;50.098;8.726;2023-05-17T11:40:17;6.10;;;1.95;;
22176;SDS011;11254;50.098;8.726;2023-05-17T11:43:13;4.45;;;1.80;;
22176;SDS011;11254;50.098;8.726;2023-05-17T11:45:42;6.57;;;2.28;;
22176;SDS011;11254;50.098;8.726;2023-05-17T11:48:12;7.93;;;2.20;;
22176;SDS011;11254;50.098;8.726;2023-05-17T11:50:42;7.55;;;1.60;;
22176;SDS011;11254;50.098;8.726;2023-05-17T11:53:11;4.65;;;1.73;;
22176;SDS011;11254;50.098;8.726;2023-05-17T11:55:40;7.68;;;2.28;;
22176;SDS011;11254;50.098;8.726;2023-05-17T11:58:09;5.10;;;1.58;;
22176;SDS011;11254;50.098;8.726;2023-05-17T12:00:39;7.88;;;1.65;;
22176;SDS011;11254;50.098;8.726;2023-05-17T12:03:18;6.72;;;1.95;;
22176;SDS011;11254;50.098;8.726;2023-05-17T12:05:48;4.78;;;1.80;;
22176;SDS011;11254;50.098;8.726;2023-05-17T12:08:17;7.28;;;2.00;;
22176;SDS011;11254;50.098;8.726;2023-05-17T12:10:46;6.72;;;1.45;;
22176;SDS011;11254;50.098;8.726;2023-05-17T12:13:15;5.63;;;2.00;;
22176;SDS011;11254;50.098;8.726;2023-05-17T12:15:52;6.88;;;1.80;;
22176;SDS011;11254;50.098;8.726;2023-05-17T12:18:25;3.90;;;1.40;;
22176;SDS011;11254;50.098;8.726;2023-05-17T12:21:02;8.15;;;2.13;;
22176;SDS011;11254;50.098;8.726;2023-05-17T12:23:31;6.00;;;1.55;;
22176;SDS011;11254;50.098;8.726;2023-05-17T12:26:03;6.57;;;1.75;;
22176;SDS011;11254;50.098;8.726;2023-05-17T12:28:32;7.68;;;2.00;;
22176;SDS011;11254;50.098;8.726;2023-05-17T12:31:00;4.75;;;1.60;;
22176;SDS011;11254;50.098;8.726;2023-05-17T12:33:32;6.78;;;1.50;;
22176;SDS011;11254;50.098;8.726;2023-05-17T12:36:01;6.78;;;1.80;;
22176;SDS011;11254;50.098;8.726;2023-05-17T12:38:30;7.80;;;2.20;;
22176;SDS011;11254;50.098;8.726;2023-05-17T12:40:59;7.38;;;1.80;;
22176;SDS011;11254;50.098;8.726;2023-05-17T12:43:28;5.78;;;1.70;;
22176;SDS011;11254;50.098;8.726;2023-05-17T12:46:07;7.38;;;1.75;;
22176;SDS011;11254;50.098;8.726;2023-05-17T12:48:38;6.75;;;1.67;;
22176;SDS011;11254;50.098;8.726;2023-05-17T12:51:08;6.97;;;1.88;;
22176;SDS011;11254;50.098;8.726;2023-05-17T12:53:37;6.15;;;1.70;;
22176;SDS011;11254;50.098;8.726;2023-05-17T12:56:06;5.85;;;1.95;;
22176;SDS011;11254;50.098;8.726;2023-05-17T12:58:35;7.40;;;1.65;;
22176;SDS011;11254;50.098;8.726;2023-05-17T13:01:03;7.40;;;2.00;;
22176;SDS011;11254;50.098;8.726;2023-05-17T13:03:37;6.95;;;1.80;;
22176;SDS011;11254;50.098;8.726;2023-05-17T13:06:06;6.63;;;2.15;;
22176;SDS011;11254;50.098;8.726;2023-05-17T13:08:36;5.60;;;1.80;;
22176;SDS011;11254;50.098;8.726;2023-05-17T13:11:06;4.50;;;1.70;;
22176;SDS011;11254;50.098;8.726;2023-05-17T13:13:34;6.40;;;1.70;;
22176;SDS011;11254;50.098;8.726;2023-05-17T13:16:03;6.80;;;1.73;;
22176;SDS011;11254;50.098;8.726;2023-05-17T13:21:24;8.40;;;2.05;;
22176;SDS011;11254;50.098;8.726;2023-05-17T13:23:53;7.03;;;1.58;;
22176;SDS011;11254;50.098;8.726;2023-05-17T13:26:21;7.38;;;1.60;;
22176;SDS011;11254;50.098;8.726;2023-05-17T13:28:49;6.15;;;1.92;;
22176;SDS011;11254;50.098;8.726;2023-05-17T13:31:18;7.75;;;1.95;;
22176;SDS011;11254;50.098;8.726;2023-05-17T13:33:46;7.90;;;1.92;;
22176;SDS011;11254;50.098;8.726;2023-05-17T13:36:15;11.90;;;1.88;;
22176;SDS011;11254;50.098;8.726;2023-05-17T13:38:46;4.93;;;1.55;;
22176;SDS011;11254;50.098;8.726;2023-05-17T13:41:14;4.53;;;1.40;;
22176;SDS011;11254;50.098;8.726;2023-05-17T13:43:42;3.83;;;1.50;;
22176;SDS011;11254;50.098;8.726;2023-05-17T13:46:11;7.03;;;1.70;;
22176;SDS011;11254;50.098;8.726;2023-05-17T13:48:40;7.90;;;2.03;;
22176;SDS011;11254;50.098;8.726;2023-05-17T13:51:08;6.25;;;2.00;;
22176;SDS011;11254;50.098;8.726;2023-05-17T13:53:37;6.03;;;1.77;;
22176;SDS011;11254;50.098;8.726;2023-05-17T13:56:09;7.20;;;2.60;;
22176;SDS011;11254;50.098;8.726;2023-05-17T13:58:38;7.63;;;1.95;;
22176;SDS011;11254;50.098;8.726;2023-05-17T14:01:06;7.32;;;1.88;;
22176;SDS011;11254;50.098;8.726;2023-05-17T14:03:35;7.10;;;2.00;;
22176;SDS011;11254;50.098;8.726;2023-05-17T14:06:03;4.80;;;1.50;;
22176;SDS011;11254;50.098;8.726;2023-05-17T14:08:33;6.15;;;2.08;;
22176;SDS011;11254;50.098;8.726;2023-05-17T14:11:01;9.40;;;1.88;;
22176;SDS011;11254;50.098;8.726;2023-05-17T14:13:31;6.65;;;2.10;;
22176;SDS011;11254;50.098;8.726;2023-05-17T14:16:00;5.20;;;1.70;;
22176;SDS011;11254;50.098;8.726;2023-05-17T14:18:28;10.02;;;2.08;;
22176;SDS011;11254;50.098;8.726;2023-05-17T14:20:58;7.07;;;1.60;;
22176;SDS011;11254;50.098;8.726;2023-05-17T14:23:26;9.32;;;1.90;;
22176;SDS011;11254;50.098;8.726;2023-05-17T14:25:55;7.85;;;1.90;;
22176;SDS011;11254;50.098;8.726;2023-05-17T14:28:23;7.35;;;1.95;;
22176;SDS011;11254;50.098;8.726;2023-05-17T14:30:53;8.43;;;1.88;;
22176;SDS011;11254;50.098;8.726;2023-05-17T14:33:22;8.50;;;1.90;;
22176;SDS011;11254;50.098;8.726;2023-05-17T14:35:52;6.38;;;1.67;;
22176;SDS011;11254;50.098;8.726;2023-05-17T14:38:20;7.55;;;1.98;;
22176;SDS011;11254;50.098;8.726;2023-05-17T14:40:49;6.57;;;1.70;;
22176;SDS011;11254;50.098;8.726;2023-05-17T14:43:18;9.07;;;2.25;;
22176;SDS011;11254;50.098;8.726;2023-05-17T14:45:46;6.50;;;1.90;;
22176;SDS011;11254;50.098;8.726;2023-05-17T14:48:16;12.32;;;2.20;;
22176;SDS011;11254;50.098;8.726;2023-05-17T14:50:45;6.72;;;1.60;;
22176;SDS011;11254;50.098;8.726;2023-05-17T14:53:13;6.22;;;1.65;;
22176;SDS011;11254;50.098;8.726;2023-05-17T14:55:42;5.82;;;1.90;;
22176;SDS011;11254;50.098;8.726;2023-05-17T14:58:10;5.82;;;1.85;;
22176;SDS011;11254;50.098;8.726;2023-05-17T15:00:39;7.95;;;1.95;;
22176;SDS011;11254;50.098;8.726;2023-05-17T15:03:17;4.82;;;1.80;;
22176;SDS011;11254;50.098;8.726;2023-05-17T15:05:51;7.78;;;2.03;;